Time;durP1;ratioP1;P1;durP2;ratioP2;P2;SDS_P1;SDS_P2;PMS_P1;PMS_P2;Temp;Humidity;BMP_temperature;BMP_pressure;BME280_temperature;BME280_humidity;BME280_pressure;Samples;Min_cycle;Max_cycle;Signal;HPM_P1;HPM_P2
2023/08/03 00:00:15;;;;;;;3.65;1.65;;;;;;;18.06;95.88;99106.09;5106912;28;20044;-74
2023/08/03 00:02:41;;;;;;;5.05;1.75;;;;;;;17.99;95.92;99091.22;5074382;28;20482;-74
2023/08/03 00:05:07;;;;;;;4.30;1.50;;;;;;;17.89;96.15;99085.91;5073452;28;20032;-74
2023/08/03 00:07:32;;;;;;;3.55;1.80;;;;;;;17.98;96.66;99095.00;5072805;28;20032;-74
2023/08/03 00:09:58;;;;;;;4.30;1.60;;;;;;;18.07;96.35;99098.72;5073589;28;20459;-74
2023/08/03 00:12:24;;;;;;;4.20;2.05;;;;;;;18.08;96.94;99094.94;5073503;28;20499;-74
2023/08/03 00:14:50;;;;;;;4.43;1.80;;;;;;;18.07;96.33;99075.03;5056745;28;20047;-74
2023/08/03 00:17:15;;;;;;;3.15;1.55;;;;;;;18.13;96.15;99077.72;5089907;28;20562;-74
2023/08/03 00:19:41;;;;;;;2.88;1.65;;;;;;;17.97;95.83;99056.13;5074034;28;20177;-73
2023/08/03 00:22:08;;;;;;;4.15;1.70;;;;;;;18.08;97.20;99082.13;5074032;28;20033;-74
2023/08/03 00:24:33;;;;;;;4.57;1.40;;;;;;;18.06;97.26;99086.22;5090480;28;20028;-74
2023/08/03 00:26:59;;;;;;;3.50;1.50;;;;;;;18.02;98.08;99074.31;5090318;28;20478;-73
2023/08/03 00:29:24;;;;;;;6.00;1.98;;;;;;;17.88;98.83;99057.88;5074559;28;20036;-74
2023/08/03 00:31:50;;;;;;;2.97;1.70;;;;;;;18.02;98.94;99064.22;5074261;28;20028;-74
2023/08/03 00:34:15;;;;;;;4.18;1.50;;;;;;;18.04;98.86;99070.19;5072769;28;20042;-74
2023/08/03 00:36:40;;;;;;;2.95;1.52;;;;;;;18.07;98.75;99072.31;5072674;28;20029;-74
2023/08/03 00:39:06;;;;;;;4.53;1.90;;;;;;;18.00;99.30;99066.41;5072238;28;20411;-73
2023/08/03 00:41:31;;;;;;;6.13;1.67;;;;;;;17.99;99.50;99074.88;5089702;28;20090;-73
2023/08/03 00:43:57;;;;;;;2.72;1.52;;;;;;;18.02;99.47;99068.88;5074188;28;20106;-74
2023/08/03 00:46:22;;;;;;;2.72;1.65;;;;;;;18.05;99.40;99071.00;5072221;28;20029;-74
2023/08/03 00:48:48;;;;;;;2.63;1.67;;;;;;;18.07;99.38;99074.22;5072233;28;20071;-74
2023/08/03 00:51:13;;;;;;;3.25;1.85;;;;;;;18.05;99.28;99062.84;5049943;28;20499;-74
2023/08/03 00:53:39;;;;;;;5.53;2.33;;;;;;;18.01;99.94;99076.22;5108011;28;20380;-74
2023/08/03 00:56:05;;;;;;;6.03;2.17;;;;;;;17.98;100.00;99075.97;5072770;28;20036;-74
2023/08/03 00:58:30;;;;;;;5.40;1.58;;;;;;;17.89;100.00;99053.25;5056369;28;20035;-73
2023/08/03 01:00:56;;;;;;;3.72;1.80;;;;;;;17.90;100.00;99054.84;5091983;28;20120;-74
2023/08/03 01:03:22;;;;;;;3.53;2.13;;;;;;;17.87;100.00;99060.88;5093581;28;20055;-73
2023/08/03 01:05:47;;;;;;;3.92;1.52;;;;;;;17.95;100.00;99073.84;5091552;28;20024;-74
2023/08/03 01:08:13;;;;;;;3.42;1.63;;;;;;;17.86;100.00;99068.22;5084171;28;20495;-74
2023/08/03 01:10:38;;;;;;;5.43;2.00;;;;;;;17.86;100.00;99064.69;5055538;28;20028;-74
2023/08/03 01:13:04;;;;;;;2.97;1.40;;;;;;;17.90;100.00;99065.72;5071674;28;20033;-74
2023/08/03 01:15:29;;;;;;;4.45;1.90;;;;;;;17.79;100.00;99060.41;5055657;28;20131;-74
2023/08/03 01:17:55;;;;;;;2.97;1.67;;;;;;;17.79;100.00;99067.78;5054507;28;20502;-74
2023/08/03 01:20:21;;;;;;;4.43;1.63;;;;;;;17.86;100.00;99060.06;5054000;28;20032;-74
2023/08/03 01:22:47;;;;;;;3.40;1.60;;;;;;;17.90;100.00;99060.28;5092018;28;20020;-74
2023/08/03 01:25:12;;;;;;;4.22;1.80;;;;;;;17.89;100.00;99058.69;5093115;28;20024;-74
2023/08/03 01:27:38;;;;;;;4.78;1.88;;;;;;;17.94;100.00;99053.16;5092635;28;20040;-74
2023/08/03 01:30:05;;;;;;;4.70;1.80;;;;;;;17.79;100.00;99054.97;5109380;28;20055;-74
2023/08/03 01:32:31;;;;;;;5.05;1.95;;;;;;;17.81;100.00;99054.66;5093612;28;20024;-74
2023/08/03 01:34:56;;;;;;;4.57;1.80;;;;;;;17.73;100.00;99058.00;5092300;28;20446;-73
2023/08/03 01:37:22;;;;;;;4.22;1.75;;;;;;;17.76;100.00;99061.00;5091456;28;20125;-73
2023/08/03 01:39:48;;;;;;;2.75;1.75;;;;;;;17.71;100.00;99043.88;5074527;28;20042;-74
2023/08/03 01:42:14;;;;;;;3.75;1.70;;;;;;;17.72;100.00;99054.47;5074782;28;20085;-74
2023/08/03 01:44:41;;;;;;;3.10;1.70;;;;;;;17.58;100.00;99037.22;5091791;28;20118;-74
2023/08/03 01:47:07;;;;;;;3.35;1.63;;;;;;;17.71;100.00;99057.47;5092660;28;20028;-74
2023/08/03 01:49:33;;;;;;;5.78;1.95;;;;;;;17.65;100.00;99043.13;5091257;28;20387;-73
2023/08/03 01:51:59;;;;;;;3.05;1.90;;;;;;;17.83;100.00;99055.19;5092772;28;20035;-73
2023/08/03 01:54:25;;;;;;;2.90;1.60;;;;;;;17.75;100.00;99056.63;5092618;28;20091;-74
2023/08/03 01:56:52;;;;;;;3.55;1.70;;;;;;;17.79;100.00;99054.16;5112736;28;20028;-74
2023/08/03 01:59:18;;;;;;;2.78;1.65;;;;;;;17.78;100.00;99053.38;5111628;28;20039;-74
2023/08/03 02:01:43;;;;;;;4.47;1.80;;;;;;;17.66;100.00;99033.88;5112972;28;20157;-74
2023/08/03 02:04:09;;;;;;;2.80;1.88;;;;;;;17.82;100.00;99048.94;5112404;28;20043;-73
2023/08/03 02:06:36;;;;;;;2.17;1.55;;;;;;;17.78;100.00;99042.47;5112176;28;20427;-74
2023/08/03 02:09:02;;;;;;;10.15;3.05;;;;;;;17.77;100.00;99034.59;5111418;28;20104;-74
2023/08/03 02:11:27;;;;;;;5.88;1.80;;;;;;;17.81;100.00;99047.34;5111902;28;20331;-73
2023/08/03 02:13:52;;;;;;;3.70;1.70;;;;;;;17.88;100.00;99043.44;5094334;28;20046;-74
2023/08/03 02:16:18;;;;;;;2.88;1.67;;;;;;;17.91;100.00;99042.84;5094153;28;20557;-74
2023/08/03 02:18:43;;;;;;;3.15;1.85;;;;;;;17.75;100.00;99048.47;5112553;28;20036;-74
2023/08/03 02:21:09;;;;;;;4.10;1.65;;;;;;;17.77;100.00;99048.19;5094011;28;20043;-74
2023/08/03 02:23:34;;;;;;;3.45;1.60;;;;;;;17.79;100.00;99033.22;5112424;28;20513;-73
2023/08/03 02:26:02;;;;;;;2.30;1.73;;;;;;;17.63;100.00;99020.84;5094955;28;20053;-73
2023/08/03 02:28:32;;;;;;;3.35;1.85;;;;;;;17.74;100.00;99041.38;5114409;28;20027;-73
2023/08/03 02:30:58;;;;;;;2.42;1.67;;;;;;;17.55;100.00;99032.38;5114105;28;20474;-73
2023/08/03 02:33:23;;;;;;;4.47;2.05;;;;;;;17.55;100.00;99033.19;5113678;28;20031;-74
2023/08/03 02:35:49;;;;;;;2.35;1.70;;;;;;;17.47;100.00;99043.88;5114049;28;20035;-74
2023/08/03 02:38:14;;;;;;;3.42;1.92;;;;;;;17.51;100.00;99036.75;5098225;28;20020;-74
2023/08/03 02:40:40;;;;;;;3.83;1.70;;;;;;;17.57;100.00;99036.41;5112366;28;20489;-74
2023/08/03 02:43:05;;;;;;;4.65;1.90;;;;;;;17.58;100.00;99042.66;5073244;28;20028;-74
2023/08/03 02:45:31;;;;;;;6.45;1.90;;;;;;;17.56;100.00;99039.44;5090497;28;20024;-73
2023/08/03 02:47:56;;;;;;;5.30;2.10;;;;;;;17.67;100.00;99034.69;5087423;28;20123;-73
2023/08/03 02:50:21;;;;;;;4.03;1.70;;;;;;;17.55;100.00;99021.50;5069368;28;20407;-74
2023/08/03 02:52:47;;;;;;;4.18;1.90;;;;;;;17.70;100.00;99039.53;5070851;28;20033;-74
2023/08/03 02:55:12;;;;;;;3.47;1.90;;;;;;;17.68;100.00;99034.41;5039024;28;20028;-73
2023/08/03 02:57:38;;;;;;;4.22;1.67;;;;;;;17.70;100.00;99034.91;5070179;28;20505;-74
2023/08/03 03:00:05;;;;;;;3.63;1.80;;;;;;;17.70;100.00;99015.88;5090626;28;20116;-73
2023/08/03 03:02:32;;;;;;;5.43;1.70;;;;;;;17.66;100.00;99023.00;5090591;28;20027;-74
2023/08/03 03:04:57;;;;;;;4.20;1.77;;;;;;;17.70;100.00;99026.75;5105937;28;20036;-73
2023/08/03 03:07:22;;;;;;;2.97;1.70;;;;;;;17.64;100.00;99021.66;5089250;28;20028;-73
2023/08/03 03:09:48;;;;;;;2.25;1.90;;;;;;;17.76;100.00;99017.47;5106107;28;20020;-73
2023/08/03 03:12:14;;;;;;;3.53;2.10;;;;;;;17.84;100.00;99008.66;5079153;28;20123;-74
2023/08/03 03:14:40;;;;;;;4.85;1.83;;;;;;;17.96;100.00;99004.72;5069324;28;20509;-74
2023/08/03 03:17:06;;;;;;;3.72;1.70;;;;;;;17.87;100.00;99001.00;5070205;28;20024;-74
2023/08/03 03:19:31;;;;;;;4.85;1.70;;;;;;;17.89;100.00;99004.25;5052109;28;20032;-73
2023/08/03 03:21:56;;;;;;;3.67;1.90;;;;;;;17.90;100.00;99006.69;5072019;28;20033;-73
2023/08/03 03:24:22;;;;;;;3.72;1.75;;;;;;;17.88;100.00;99005.34;5058424;28;20032;-73
2023/08/03 03:26:47;;;;;;;2.30;1.90;;;;;;;17.99;100.00;99006.84;5069016;28;20487;-75
2023/08/03 03:29:12;;;;;;;3.47;1.90;;;;;;;17.96;100.00;98988.38;5052423;28;20032;-74
2023/08/03 03:31:38;;;;;;;5.72;1.98;;;;;;;17.96;100.00;99008.25;5068132;28;20036;-73
2023/08/03 03:34:03;;;;;;;4.70;1.80;;;;;;;17.93;100.00;99006.09;5051193;28;20199;-74
2023/08/03 03:36:29;;;;;;;3.63;2.15;;;;;;;18.02;100.00;99000.81;5051403;28;20146;-74
2023/08/03 03:38:54;;;;;;;4.05;2.00;;;;;;;17.96;100.00;98983.75;5068918;28;20115;-74
2023/08/03 03:41:20;;;;;;;3.95;1.85;;;;;;;18.12;100.00;99003.41;5068519;28;20185;-73
2023/08/03 03:43:45;;;;;;;3.47;2.10;;;;;;;17.88;100.00;98978.97;5053208;28;20039;-74
2023/08/03 03:46:11;;;;;;;4.22;1.70;;;;;;;17.92;100.00;99003.69;5053961;28;20051;-73
2023/08/03 03:48:36;;;;;;;3.13;1.90;;;;;;;18.17;100.00;99007.97;5068539;28;20036;-73
2023/08/03 03:51:02;;;;;;;5.35;2.00;;;;;;;18.26;100.00;99000.75;5025248;28;1256276;-74
2023/08/03 03:53:27;;;;;;;3.25;1.85;;;;;;;18.82;100.00;98994.50;5070822;28;20040;-73
2023/08/03 03:55:53;;;;;;;3.13;1.67;;;;;;;19.17;100.00;98990.34;5069905;28;20044;-73
2023/08/03 03:58:18;;;;;;;4.47;2.17;;;;;;;19.42;100.00;98999.16;5069582;28;20037;-74
2023/08/03 04:00:43;;;;;;;3.63;2.00;;;;;;;19.33;100.00;98988.13;5070057;28;20040;-74
2023/08/03 04:03:10;;;;;;;3.72;1.67;;;;;;;20.24;97.80;99014.72;5052625;28;20472;-74
2023/08/03 04:05:39;;;;;;;3.22;1.85;;;;;;;20.28;96.80;98996.59;5069862;28;20035;-74
2023/08/03 04:08:05;;;;;;;3.35;1.60;;;;;;;20.85;93.44;99016.06;5056766;28;20052;-73
2023/08/03 04:10:31;;;;;;;4.03;1.65;;;;;;;21.37;90.38;99009.34;5072289;28;20039;-74
2023/08/03 04:12:57;;;;;;;2.42;1.70;;;;;;;20.98;91.82;99008.09;5068663;28;20360;-73
2023/08/03 04:15:23;;;;;;;3.72;1.60;;;;;;;20.67;92.88;98992.47;5052472;28;20155;-74
2023/08/03 04:17:48;;;;;;;4.55;1.50;;;;;;;20.55;94.61;99012.13;5069205;28;20020;-74
2023/08/03 04:20:17;;;;;;;3.80;1.70;;;;;;;20.37;96.03;99010.34;5052324;28;20039;-74
2023/08/03 04:22:43;;;;;;;3.35;1.65;;;;;;;20.20;96.95;99016.47;5070392;28;20039;-74
2023/08/03 04:25:09;;;;;;;6.70;1.70;;;;;;;20.01;98.02;99013.84;5068761;28;20024;-73
2023/08/03 04:27:36;;;;;;;2.67;1.50;;;;;;;19.92;99.00;99016.47;5068994;28;20559;-74
2023/08/03 04:30:01;;;;;;;2.55;1.70;;;;;;;19.71;99.94;99009.84;5068563;28;20090;-73
2023/08/03 04:32:27;;;;;;;2.40;1.48;;;;;;;19.38;100.00;98995.44;5071736;28;20036;-74
2023/08/03 04:34:52;;;;;;;3.35;1.60;;;;;;;19.10;100.00;99009.00;5090302;28;20028;-74
2023/08/03 04:37:18;;;;;;;5.28;1.60;;;;;;;19.15;100.00;99008.91;5091212;28;20028;-74
2023/08/03 04:39:43;;;;;;;3.13;1.63;;;;;;;19.13;100.00;99008.41;5055150;28;20028;-74
2023/08/03 04:42:08;;;;;;;3.70;1.63;;;;;;;18.94;100.00;98988.56;5063979;28;20024;-73
2023/08/03 04:44:34;;;;;;;2.47;1.70;;;;;;;18.96;100.00;98989.88;5107758;28;20032;-73
2023/08/03 04:46:59;;;;;;;2.15;1.42;;;;;;;19.16;100.00;99013.25;5088879;28;20077;-74
2023/08/03 04:49:28;;;;;;;6.45;2.17;;;;;;;19.17;100.00;99014.06;5082975;28;20020;-74
2023/08/03 04:51:53;;;;;;;3.60;1.92;;;;;;;19.21;100.00;99007.72;5095326;28;20051;-74
2023/08/03 04:54:19;;;;;;;6.00;1.52;;;;;;;19.25;100.00;99014.19;5097771;28;20687;-73
2023/08/03 04:56:45;;;;;;;3.30;1.50;;;;;;;19.25;100.00;99011.47;5092661;28;20099;-74
2023/08/03 04:59:10;;;;;;;5.70;1.70;;;;;;;19.24;100.00;99003.59;5075693;28;20111;-74
2023/08/03 05:01:36;;;;;;;2.45;1.58;;;;;;;19.23;100.00;99000.03;5092761;28;20036;-74
2023/08/03 05:04:01;;;;;;;5.32;1.95;;;;;;;19.21;100.00;99004.19;5075627;28;20097;-74
2023/08/03 05:06:28;;;;;;;3.78;1.80;;;;;;;19.22;100.00;99005.81;5081442;28;20036;-74
2023/08/03 05:08:53;;;;;;;3.15;1.55;;;;;;;19.33;100.00;99011.88;5091319;28;20031;-73
2023/08/03 05:11:20;;;;;;;4.60;1.80;;;;;;;19.33;100.00;99011.88;5079382;28;20074;-74
2023/08/03 05:13:45;;;;;;;3.65;2.00;;;;;;;19.27;100.00;99005.72;5081632;28;20033;-74
2023/08/03 05:16:11;;;;;;;2.33;1.77;;;;;;;19.30;100.00;99007.81;5082380;28;20444;-74
2023/08/03 05:18:36;;;;;;;4.15;1.67;;;;;;;19.20;100.00;98997.94;5086350;28;20479;-73
2023/08/03 05:21:02;;;;;;;2.17;1.42;;;;;;;19.21;100.00;99007.72;5088718;28;20035;-74
2023/08/03 05:23:28;;;;;;;4.13;1.80;;;;;;;19.16;100.00;99002.34;5054995;28;20070;-72
2023/08/03 05:25:58;;;;;;;4.05;1.70;;;;;;;19.22;100.00;99014.00;5073217;28;20025;-72
2023/08/03 05:28:24;;;;;;;2.78;1.55;;;;;;;19.23;100.00;99010.94;5086089;28;20020;-73
2023/08/03 05:30:50;;;;;;;2.85;1.58;;;;;;;19.17;100.00;99006.72;5093393;28;20490;-74
2023/08/03 05:33:15;;;;;;;3.72;1.83;;;;;;;19.21;100.00;98990.56;5092893;28;20039;-73
2023/08/03 05:35:42;;;;;;;3.55;1.80;;;;;;;19.41;100.00;99009.28;5083439;28;20398;-73
2023/08/03 05:38:07;;;;;;;2.58;1.83;;;;;;;19.39;100.00;99006.03;5091307;28;20420;-73
2023/08/03 05:40:33;;;;;;;3.53;1.88;;;;;;;19.42;100.00;99008.16;5091976;28;20051;-74
2023/08/03 05:42:59;;;;;;;2.45;1.48;;;;;;;19.37;100.00;99008.28;5072520;28;20032;-73
2023/08/03 05:45:41;;;;;;;4.63;1.60;;;;;;;19.49;100.00;99002.31;5061114;28;20028;-73
2023/08/03 05:48:15;;;;;;;2.33;1.40;;;;;;;19.48;100.00;99003.44;5092828;28;20046;-74
2023/08/03 05:50:46;;;;;;;3.47;1.88;;;;;;;19.44;100.00;99010.59;5093785;28;20055;-74
2023/08/03 05:53:12;;;;;;;4.03;1.50;;;;;;;19.28;100.00;98995.63;5095762;28;20123;-73
2023/08/03 05:55:38;;;;;;;5.18;1.70;;;;;;;19.29;100.00;99002.69;5091895;28;20028;-74
2023/08/03 05:58:05;;;;;;;2.83;1.60;;;;;;;19.21;100.00;98996.81;5068064;28;20032;-72
2023/08/03 06:00:31;;;;;;;3.13;1.60;;;;;;;19.20;100.00;98997.09;5080776;28;20071;-74
2023/08/03 06:02:58;;;;;;;3.42;1.58;;;;;;;19.23;100.00;99004.69;5086353;28;20379;-74
2023/08/03 06:05:58;;;;;;;4.32;1.85;;;;;;;19.21;100.00;99006.94;5085198;28;20032;-73
2023/08/03 06:08:25;;;;;;;4.40;1.80;;;;;;;19.23;100.00;98991.06;5093513;28;20462;-73
2023/08/03 06:10:52;;;;;;;3.75;1.80;;;;;;;19.31;100.00;99006.75;5092055;28;20036;-74
2023/08/03 06:13:19;;;;;;;2.60;1.90;;;;;;;19.39;100.00;99005.22;5089647;28;20042;-74
2023/08/03 06:15:47;;;;;;;3.03;1.60;;;;;;;19.39;100.00;99003.31;5080029;28;20024;-74
2023/08/03 06:18:19;;;;;;;3.42;1.83;;;;;;;19.55;100.00;99003.81;5087092;28;20103;-74
2023/08/03 06:20:50;;;;;;;3.92;1.90;;;;;;;19.65;100.00;99009.13;5075422;28;20093;-74
2023/08/03 06:23:18;;;;;;;3.80;2.10;;;;;;;19.54;100.00;99002.22;5077324;28;20028;-74
2023/08/03 06:25:45;;;;;;;4.75;1.77;;;;;;;19.59;100.00;99009.47;5092303;28;20038;-74
2023/08/03 06:28:13;;;;;;;4.53;1.88;;;;;;;19.53;100.00;99006.03;5092064;28;20111;-74
2023/08/03 06:30:40;;;;;;;3.42;1.60;;;;;;;19.53;100.00;99006.03;5084138;28;20054;-73
2023/08/03 06:33:09;;;;;;;2.80;1.77;;;;;;;19.34;100.00;98999.88;5069007;28;20102;-74
2023/08/03 06:35:38;;;;;;;4.25;1.65;;;;;;;19.44;100.00;99005.16;5076942;28;20023;-74
2023/08/03 06:38:05;;;;;;;3.70;1.90;;;;;;;19.68;100.00;99011.25;5091656;28;20031;-74
2023/08/03 06:40:31;;;;;;;3.63;1.88;;;;;;;19.93;100.00;99014.56;5091659;28;20027;-74
2023/08/03 06:42:57;;;;;;;3.40;1.88;;;;;;;19.84;100.00;99011.75;5091618;28;20039;-74
2023/08/03 06:45:22;;;;;;;2.90;1.70;;;;;;;19.81;100.00;99015.09;5091442;28;20028;-75
2023/08/03 06:47:48;;;;;;;5.13;1.88;;;;;;;19.99;100.00;99012.53;5092679;28;20131;-74
2023/08/03 06:50:14;;;;;;;7.47;2.05;;;;;;;19.74;100.00;99005.69;5106410;28;20093;-74
2023/08/03 06:52:39;;;;;;;3.08;1.70;;;;;;;19.89;100.00;99019.00;5090070;28;20024;-75
2023/08/03 06:55:05;;;;;;;4.97;1.90;;;;;;;19.98;100.00;98995.34;5089799;28;20116;-75
2023/08/03 06:57:30;;;;;;;5.43;1.70;;;;;;;19.82;100.00;99004.97;5088093;28;20025;-75
2023/08/03 06:59:56;;;;;;;2.78;1.63;;;;;;;20.02;100.00;99015.47;5089598;28;20027;-74
2023/08/03 07:02:22;;;;;;;2.05;1.83;;;;;;;20.28;100.00;99015.72;5071162;28;20122;-74
2023/08/03 07:04:48;;;;;;;2.70;1.73;;;;;;;20.18;100.00;99014.03;5105083;28;20024;-75
2023/08/03 07:07:16;;;;;;;2.88;1.70;;;;;;;20.42;100.00;99005.56;5105283;28;20096;-75
2023/08/03 07:09:43;;;;;;;3.33;1.70;;;;;;;20.49;100.00;99009.78;5105646;28;20491;-75
2023/08/03 07:12:09;;;;;;;4.80;1.77;;;;;;;20.83;100.00;99017.50;5089698;28;20032;-75
2023/08/03 07:14:35;;;;;;;3.78;1.70;;;;;;;20.98;100.00;99017.13;5107080;28;20054;-75
2023/08/03 07:17:00;;;;;;;1.95;1.55;;;;;;;20.95;100.00;99016.94;5072876;28;20032;-74
2023/08/03 07:19:26;;;;;;;3.83;1.67;;;;;;;20.96;100.00;98996.66;5089694;28;20024;-75
2023/08/03 07:21:51;;;;;;;2.95;1.45;;;;;;;21.45;99.90;99016.75;5089520;28;20031;-75
2023/08/03 07:24:16;;;;;;;3.00;1.80;;;;;;;21.52;99.32;99015.22;5089898;28;20070;-75
2023/08/03 07:26:42;;;;;;;6.32;1.58;;;;;;;21.37;98.35;98999.19;5090018;28;20040;-74
2023/08/03 07:29:07;;;;;;;5.00;1.65;;;;;;;21.37;98.54;99001.94;5072761;28;20532;-75
2023/08/03 07:31:33;;;;;;;2.47;1.52;;;;;;;21.50;97.63;99009.22;5072776;28;20028;-75
2023/08/03 07:33:58;;;;;;;4.15;1.58;;;;;;;21.54;96.90;99009.41;5089685;28;20031;-74
2023/08/03 07:36:24;;;;;;;4.22;1.67;;;;;;;21.62;96.25;99010.56;5089526;28;20060;-74
2023/08/03 07:38:49;;;;;;;2.85;1.40;;;;;;;21.65;96.28;99020.88;5090050;28;20036;-74
2023/08/03 07:41:14;;;;;;;2.28;1.55;;;;;;;21.57;96.12;99020.53;5088983;28;20437;-74
2023/08/03 07:43:40;;;;;;;3.05;1.60;;;;;;;21.56;95.66;99015.38;5089226;28;20024;-74
2023/08/03 07:46:05;;;;;;;2.90;1.52;;;;;;;21.69;95.10;99011.72;5072134;28;20070;-74
2023/08/03 07:48:31;;;;;;;3.13;1.45;;;;;;;21.73;95.10;99012.69;5089504;28;20481;-75
2023/08/03 07:50:56;;;;;;;2.85;1.40;;;;;;;21.67;94.70;99013.16;5072105;28;20413;-74
2023/08/03 07:53:22;;;;;;;2.90;1.50;;;;;;;21.84;94.46;99012.41;5088965;28;20028;-75
2023/08/03 07:55:47;;;;;;;2.17;1.45;;;;;;;22.03;93.89;99018.44;5072825;28;20024;-74
2023/08/03 07:58:12;;;;;;;2.92;1.50;;;;;;;22.07;93.87;99021.34;5088847;28;20028;-74
2023/08/03 08:00:38;;;;;;;3.42;1.50;;;;;;;21.98;93.64;99024.84;5072368;28;20487;-74
2023/08/03 08:03:04;;;;;;;3.58;1.45;;;;;;;22.07;92.87;99011.19;5089272;28;20034;-75
2023/08/03 08:05:29;;;;;;;7.28;1.50;;;;;;;22.34;92.34;99018.34;5090278;28;20061;-74
2023/08/03 08:07:55;;;;;;;4.10;1.45;;;;;;;22.18;92.21;98993.34;5059219;28;20130;-74
2023/08/03 08:10:21;;;;;;;2.72;1.35;;;;;;;22.37;91.63;99014.16;5073256;28;20132;-74
2023/08/03 08:12:46;;;;;;;1.40;1.20;;;;;;;22.45;89.73;99014.19;5088734;28;20459;-74
2023/08/03 08:15:11;;;;;;;3.20;1.30;;;;;;;22.58;89.08;99008.84;5089158;28;20046;-74
2023/08/03 08:17:37;;;;;;;2.80;1.50;;;;;;;22.57;89.42;99021.75;5072072;28;20082;-74
2023/08/03 08:20:02;;;;;;;3.95;1.42;;;;;;;22.64;89.25;99018.53;5088910;28;20024;-73
2023/08/03 08:22:28;;;;;;;3.33;1.30;;;;;;;22.79;89.51;99018.03;5089179;28;20039;-74
2023/08/03 08:24:54;;;;;;;2.90;1.55;;;;;;;22.94;88.49;99025.78;5075923;28;20036;-74
2023/08/03 08:27:19;;;;;;;2.85;1.67;;;;;;;22.93;87.51;99020.63;5110165;28;20383;-74
2023/08/03 08:29:45;;;;;;;2.30;1.60;;;;;;;23.02;86.60;99026.91;5093131;28;20501;-74
2023/08/03 08:32:11;;;;;;;2.83;1.52;;;;;;;22.87;87.54;99025.44;5093262;28;20040;-74
2023/08/03 08:34:37;;;;;;;3.28;1.40;;;;;;;22.70;86.53;99009.00;5096273;28;20028;-74
2023/08/03 08:37:02;;;;;;;2.15;1.40;;;;;;;22.66;86.37;99029.97;5097550;28;20024;-74
2023/08/03 08:39:29;;;;;;;1.98;1.30;;;;;;;22.87;85.08;99019.94;5093342;28;20088;-74
2023/08/03 08:41:55;;;;;;;4.00;1.42;;;;;;;23.11;84.36;99019.47;5093188;28;20050;-74
2023/08/03 08:44:21;;;;;;;3.25;1.85;;;;;;;22.90;85.04;99010.28;5109532;28;20032;-74
2023/08/03 08:46:46;;;;;;;2.50;1.58;;;;;;;23.01;84.84;99028.03;5093301;28;20023;-74
2023/08/03 08:49:12;;;;;;;4.10;1.73;;;;;;;23.25;84.15;99027.53;5091128;28;20521;-74
2023/08/03 08:51:41;;;;;;;3.55;1.55;;;;;;;23.25;83.17;99022.03;5091079;28;20127;-74
2023/08/03 08:54:07;;;;;;;3.47;1.60;;;;;;;23.34;82.63;99033.78;5091524;28;20039;-74
2023/08/03 08:56:33;;;;;;;3.25;1.80;;;;;;;23.24;82.37;99025.88;5091705;28;20482;-74
2023/08/03 08:58:59;;;;;;;3.58;1.40;;;;;;;23.36;82.43;99027.97;5093437;28;20435;-74
2023/08/03 09:01:24;;;;;;;3.40;1.50;;;;;;;23.40;80.92;99023.44;5094403;28;20043;-74
2023/08/03 09:03:56;;;;;;;3.10;1.60;;;;;;;23.57;80.48;99030.78;5092976;28;20036;-74
2023/08/03 09:06:22;;;;;;;2.88;1.40;;;;;;;23.40;80.72;99032.47;5109402;28;20031;-74
2023/08/03 09:08:49;;;;;;;2.08;1.50;;;;;;;23.41;80.25;99028.59;5092887;28;20024;-74
2023/08/03 09:11:14;;;;;;;3.35;1.60;;;;;;;23.40;79.69;99028.91;5094180;28;20020;-74
2023/08/03 09:13:40;;;;;;;1.58;1.40;;;;;;;23.32;80.74;99024.28;5076002;28;20561;-74
2023/08/03 09:16:22;;;;;;;3.28;1.30;;;;;;;23.18;79.88;99017.03;5092755;28;20035;-75
2023/08/03 09:18:47;;;;;;;4.65;1.52;;;;;;;23.18;80.42;99028.03;5092674;28;20017;-74
2023/08/03 09:21:17;;;;;;;3.47;1.60;;;;;;;23.45;79.61;99021.31;5075709;28;20035;-74
2023/08/03 09:23:43;;;;;;;2.53;1.58;;;;;;;23.23;80.00;99005.06;5093052;28;20034;-74
2023/08/03 09:26:11;;;;;;;2.28;1.30;;;;;;;23.63;78.98;99027.53;5095753;28;20020;-74
2023/08/03 09:28:38;;;;;;;2.95;1.40;;;;;;;23.45;78.66;99032.31;5112953;28;20483;-74
2023/08/03 09:31:04;;;;;;;1.98;1.30;;;;;;;23.54;77.49;99012.22;5093754;28;20024;-74
2023/08/03 09:33:31;;;;;;;3.10;1.58;;;;;;;23.77;76.90;99032.03;5094158;28;20032;-74
2023/08/03 09:36:03;;;;;;;1.30;1.15;;;;;;;23.96;76.89;99034.38;5096201;28;20023;-74
2023/08/03 09:38:29;;;;;;;2.17;1.52;;;;;;;23.62;76.82;99036.91;5092986;28;20020;-74
2023/08/03 09:40:55;;;;;;;3.58;1.10;;;;;;;23.50;77.55;99023.06;5094007;28;20054;-74
2023/08/03 09:43:24;;;;;;;3.33;1.63;;;;;;;23.63;77.27;99015.75;5092372;28;20042;-74
2023/08/03 09:45:51;;;;;;;3.28;1.38;;;;;;;23.84;77.26;99035.06;5093861;28;20028;-74
2023/08/03 09:48:18;;;;;;;2.17;1.40;;;;;;;24.21;75.58;99035.38;5093270;28;20028;-74
2023/08/03 09:50:50;;;;;;;3.67;1.67;;;;;;;24.31;75.60;99040.47;5093496;28;20104;-74
2023/08/03 09:53:19;;;;;;;2.17;1.30;;;;;;;24.02;73.71;98991.84;5091956;28;20069;-74
2023/08/03 09:55:58;;;;;;;1.95;1.23;;;;;;;24.37;73.01;99025.38;5093380;28;20069;-74
2023/08/03 09:58:29;;;;;;;1.77;1.10;;;;;;;24.37;74.47;99041.88;5091910;28;20020;-74
2023/08/03 10:00:58;;;;;;;2.70;1.38;;;;;;;23.97;73.82;99046.97;5091869;28;20024;-74
2023/08/03 10:03:26;;;;;;;4.22;1.30;;;;;;;23.73;73.31;99011.88;5093587;28;20042;-74
2023/08/03 10:06:03;;;;;;;2.28;1.40;;;;;;;24.06;71.76;99025.75;5092608;28;20030;-74
2023/08/03 10:08:42;;;;;;;2.70;1.33;;;;;;;24.25;71.48;99042.63;5093217;28;20020;-74
2023/08/03 10:11:11;;;;;;;2.75;1.33;;;;;;;24.46;71.00;99041.84;5091627;28;20397;-74
2023/08/03 10:13:42;;;;;;;2.70;1.50;;;;;;;24.25;70.40;99059.09;5093028;28;20049;-74
2023/08/03 10:16:08;;;;;;;2.05;1.20;;;;;;;24.16;71.56;99058.34;5092959;28;20036;-74
2023/08/03 10:18:35;;;;;;;3.45;1.20;;;;;;;24.20;71.11;99051.03;5092918;28;20121;-74
2023/08/03 10:21:02;;;;;;;1.60;1.00;;;;;;;24.21;70.72;99052.66;5093016;28;20055;-74
2023/08/03 10:23:28;;;;;;;2.85;1.10;;;;;;;24.28;71.03;99057.63;5092855;28;20031;-74
2023/08/03 10:26:01;;;;;;;2.67;1.13;;;;;;;24.22;69.20;99059.78;5091459;28;20427;-74
2023/08/03 10:28:39;;;;;;;1.67;1.00;;;;;;;24.13;69.05;99062.56;5091477;28;20027;-74
2023/08/03 10:31:12;;;;;;;1.50;1.10;;;;;;;24.07;68.90;99060.31;5092755;28;20054;-74
2023/08/03 10:34:03;;;;;;;3.10;1.30;;;;;;;23.77;69.04;99065.78;5092931;28;20035;-74
2023/08/03 10:36:28;;;;;;;1.90;0.98;;;;;;;23.51;72.29;99068.63;5087430;28;20115;-73
2023/08/03 10:38:59;;;;;;;3.70;1.13;;;;;;;23.45;72.69;99069.94;5092933;28;20054;-74
2023/08/03 10:41:24;;;;;;;3.80;1.20;;;;;;;;;;5093588;28;20032;-74
2023/08/03 10:44:05;;;;;;;2.17;1.13;;;;;;;22.73;80.97;99087.88;5092412;28;20027;-74
2023/08/03 10:46:34;;;;;;;4.03;1.40;;;;;;;22.67;83.32;99097.38;5092142;28;20267;-74
2023/08/03 10:49:00;;;;;;;7.18;2.05;;;;;;;21.80;90.72;99105.34;5092457;28;20459;-75
2023/08/03 10:51:25;;;;;;;4.63;2.05;;;;;;;21.57;90.98;99086.22;5090946;28;20040;-74
2023/08/03 10:53:51;;;;;;;4.85;1.67;;;;;;;21.70;90.94;99106.41;5090599;28;20024;-75
2023/08/03 10:56:17;;;;;;;4.55;1.77;;;;;;;21.60;92.36;99098.47;5090625;28;20039;-74
2023/08/03 10:58:47;;;;;;;4.80;2.00;;;;;;;21.72;92.71;99097.88;5091279;28;20376;-74
2023/08/03 11:01:15;;;;;;;3.22;1.80;;;;;;;21.74;93.07;99101.91;5090962;28;20051;-74
2023/08/03 11:03:40;;;;;;;4.63;1.83;;;;;;;21.88;93.27;99106.50;5073812;28;20024;-74
2023/08/03 11:06:06;;;;;;;3.05;1.90;;;;;;;21.69;94.76;99109.44;5090867;28;20501;-74
2023/08/03 11:08:35;;;;;;;2.92;2.08;;;;;;;21.70;95.38;99111.88;5092694;28;20040;-74
2023/08/03 11:11:01;;;;;;;3.67;2.05;;;;;;;21.65;95.81;99109.28;5090755;28;20039;-75
2023/08/03 11:13:29;;;;;;;4.88;2.15;;;;;;;21.66;95.92;99110.09;5092028;28;20024;-75
2023/08/03 11:15:54;;;;;;;2.47;1.85;;;;;;;21.78;95.77;99115.78;5074376;28;20028;-75
2023/08/03 11:18:20;;;;;;;4.15;2.20;;;;;;;21.83;95.24;99106.63;5073761;28;20035;-75
2023/08/03 11:20:45;;;;;;;2.78;1.98;;;;;;;21.95;94.80;99110.41;5091687;28;20028;-75
2023/08/03 11:23:12;;;;;;;3.45;1.77;;;;;;;22.02;94.68;99108.00;5090199;28;20039;-75
2023/08/03 11:25:38;;;;;;;5.63;2.08;;;;;;;22.16;95.05;99115.34;5090563;28;20264;-75